Time;durP1;ratioP1;P1;durP2;ratioP2;P2;SDS_P1;SDS_P2;PMS_P1;PMS_P2;Temp;Humidity;BMP_temperature;BMP_pressure;BME280_temperature;BME280_humidity;BME280_pressure;Samples;Min_cycle;Max_cycle;Signal;HPM_P1;HPM_P2
2022/10/14 00:00:24;;;;;;;58.28;24.00;;;;;;;;;;6331673;22;20455;-60
2022/10/14 00:02:51;;;;;;;66.43;24.65;;;;;;;;;;6331937;22;20021;-58
2022/10/14 00:05:25;;;;;;;66.20;26.90;;;;;;;;;;6332065;22;20015;-58
2022/10/14 00:07:52;;;;;;;;;;;;;;;;;;6333436;22;20027;-58
2022/10/14 00:10:26;;;;;;;60.25;23.30;;;;;;;;;;6330649;22;19918;-58
2022/10/14 00:12:53;;;;;;;61.00;26.98;;;;;;;;;;6332624;22;20090;-58
2022/10/14 00:15:20;;;;;;;62.25;25.58;;;;;;;;;;6332864;22;20105;-58
2022/10/14 00:17:54;;;;;;;72.38;27.83;;;;;;;;;;6332662;22;20026;-59
2022/10/14 00:20:21;;;;;;;70.93;27.00;;;;;;;;;;6330839;22;20354;-60
2022/10/14 00:22:55;;;;;;;63.58;24.23;;;;;;;;;;6332241;22;20037;-59
2022/10/14 00:25:22;;;;;;;72.95;26.08;;;;;;;;;;6330498;22;20029;-59
2022/10/14 00:27:49;;;;;;;67.30;28.52;;;;;;;;;;6332747;22;20015;-59
2022/10/14 00:30:23;;;;;;;57.30;26.17;;;;;;;;;;6331607;22;20348;-59
2022/10/14 00:32:50;;;;;;;68.93;27.17;;;;;;;;;;6331705;22;20468;-59
2022/10/14 00:35:24;;;;;;;59.38;27.10;;;;;;;;;;6331459;22;20098;-59
2022/10/14 00:37:51;;;;;;;74.53;27.85;;;;;;;;;;6332047;22;20021;-61
2022/10/14 00:40:18;;;;;;;70.10;28.88;;;;;;;;;;6332220;22;20073;-48
2022/10/14 00:42:52;;;;;;;65.50;27.70;;;;;;;;;;6331558;22;20027;-47
2022/10/14 00:45:27;;;;;;;72.97;26.15;;;;;;;;;;6330094;22;20363;-46
2022/10/14 00:48:02;;;;;;;64.95;25.95;;;;;;;;;;6305795;22;20076;-47
2022/10/14 00:50:29;;;;;;;74.15;28.60;;;;;;;;;;6332295;22;20341;-47
2022/10/14 00:52:57;;;;;;;69.32;30.30;;;;;;;;;;6333093;22;20443;-47
2022/10/14 00:55:32;;;;;;;66.57;27.27;;;;;;;;;;6331920;22;20014;-47
2022/10/14 00:57:59;;;;;;;78.07;29.33;;;;;;;;;;6332274;22;20019;-59
2022/10/14 01:00:33;;;;;;;67.38;28.92;;;;;;;;;;6333109;22;20025;-60
2022/10/14 01:03:00;;;;;;;70.72;30.25;;;;;;;;;;6331687;22;20029;-60
2022/10/14 01:05:31;;;;;;;74.50;30.98;;;;;;;;;;6332802;22;20086;-60
2022/10/14 01:08:05;;;;;;;76.77;32.27;;;;;;;;;;6331567;22;20027;-60
2022/10/14 01:10:46;;;;;;;72.03;29.95;;;;;;;;;;6331220;22;20021;-60
2022/10/14 01:13:44;;;;;;;75.05;32.10;;;;;;;;;;6305476;22;20022;-60
2022/10/14 01:16:20;;;;;;;75.57;31.67;;;;;;;;;;6292778;22;20023;-59
2022/10/14 01:19:12;;;;;;;93.90;33.75;;;;;;;;;;6332077;22;20045;-59
2022/10/14 01:21:44;;;;;;;85.10;32.80;;;;;;;;;;6330861;22;20053;-59
2022/10/14 01:24:18;;;;;;;71.63;32.85;;;;;;;;;;6330463;22;20451;-58
2022/10/14 01:26:45;;;;;;;69.30;34.22;;;;;;;;;;6331439;22;20098;-59
2022/10/14 01:29:38;;;;;;;85.72;34.40;;;;;;;;;;6331599;22;20019;-59
2022/10/14 01:32:09;;;;;;;74.25;33.78;;;;;;;;;;6329964;22;20117;-58
2022/10/14 01:34:48;;;;;;;85.10;33.60;;;;;;;;;;6331450;22;20062;-48
2022/10/14 01:37:18;;;;;;;75.25;32.47;;;;;;;;;;6331689;22;20025;-59
2022/10/14 01:39:54;;;;;;;76.75;31.95;;;;;;;;;;6331469;22;20351;-58
2022/10/14 01:42:26;;;;;;;83.85;34.45;;;;;;;;;;6331759;22;20478;-58
2022/10/14 01:45:18;;;;;;;75.72;34.97;;;;;;;;;;6328608;22;20025;-59
2022/10/14 01:47:48;;;;;;;78.03;35.50;;;;;;;;;;6329749;22;20531;-58
2022/10/14 01:50:23;;;;;;;68.60;32.55;;;;;;;;;;6331825;22;20710;-58
2022/10/14 01:53:02;;;;;;;99.05;43.88;;;;;;;;;;6331969;22;20037;-60
2022/10/14 01:55:38;;;;;;;80.90;38.70;;;;;;;;;;6331700;22;20018;-60
2022/10/14 01:58:06;;;;;;;103.50;43.22;;;;;;;;;;6332922;22;20093;-59
2022/10/14 02:00:33;;;;;;;92.63;42.97;;;;;;;;;;6332092;22;20124;-59
2022/10/14 02:03:07;;;;;;;95.40;41.83;;;;;;;;;;6330178;22;20105;-59
2022/10/14 02:05:41;;;;;;;116.78;47.08;;;;;;;;;;6331381;22;20019;-59
2022/10/14 02:08:30;;;;;;;115.35;45.80;;;;;;;;;;6331364;22;20359;-59
2022/10/14 02:11:05;;;;;;;109.75;46.75;;;;;;;;;;6333218;22;20097;-59
2022/10/14 02:13:46;;;;;;;99.85;42.20;;;;;;;;;;6332443;22;20019;-62
2022/10/14 02:16:19;;;;;;;134.93;49.35;;;;;;;;;;6332689;22;20097;-59
2022/10/14 02:18:59;;;;;;;141.98;48.70;;;;;;;;;;6332709;22;20102;-59
2022/10/14 02:21:28;;;;;;;130.80;49.85;;;;;;;;;;6334196;22;20067;-58
2022/10/14 02:24:09;;;;;;;125.82;51.40;;;;;;;;;;6332545;22;20029;-59
2022/10/14 02:26:37;;;;;;;138.32;51.58;;;;;;;;;;6333545;22;20023;-59
2022/10/14 02:29:11;;;;;;;134.07;49.95;;;;;;;;;;6330845;22;20101;-59
2022/10/14 02:31:38;;;;;;;;;;;;;;;;;;6333954;22;20027;-50
2022/10/14 02:34:14;;;;;;;82.95;38.03;;;;;;;;;;6333180;22;19993;-52
2022/10/14 02:36:42;;;;;;;150.60;52.50;;;;;;;;;;6333158;22;20015;-49
2022/10/14 02:39:11;;;;;;;103.43;45.97;;;;;;;;;;6333126;22;20034;-47
2022/10/14 02:41:45;;;;;;;125.60;49.90;;;;;;;;;;6334041;22;20076;-50
2022/10/14 02:44:18;;;;;;;138.50;52.15;;;;;;;;;;6332090;22;20038;-50
2022/10/14 02:46:59;;;;;;;135.38;51.33;;;;;;;;;;6331041;22;20057;-51
2022/10/14 02:49:27;;;;;;;124.13;49.47;;;;;;;;;;6330028;22;20022;-63
2022/10/14 02:52:01;;;;;;;113.35;48.60;;;;;;;;;;6332734;22;20347;-59
2022/10/14 02:54:28;;;;;;;119.45;49.30;;;;;;;;;;6331677;22;20021;-60
2022/10/14 02:56:55;;;;;;;149.02;53.95;;;;;;;;;;6333218;22;20027;-60
2022/10/14 02:59:29;;;;;;;124.90;49.35;;;;;;;;;;6307403;22;20098;-60
2022/10/14 03:01:56;;;;;;;119.82;51.95;;;;;;;;;;6331799;22;20022;-60
2022/10/14 03:04:23;;;;;;;141.30;51.80;;;;;;;;;;6332024;22;20072;-60
2022/10/14 03:06:57;;;;;;;127.85;50.97;;;;;;;;;;6332564;22;20023;-60
2022/10/14 03:09:24;;;;;;;;;;;;;;;;;;6333254;22;20092;-57
2022/10/14 03:11:58;;;;;;;110.93;49.00;;;;;;;;;;6333786;22;19997;-60
2022/10/14 03:14:25;;;;;;;107.38;49.08;;;;;;;;;;6331701;22;20048;-61
2022/10/14 03:16:52;;;;;;;125.95;51.65;;;;;;;;;;6331542;22;20378;-61
2022/10/14 03:19:26;;;;;;;128.65;51.67;;;;;;;;;;6333435;22;20097;-60
2022/10/14 03:21:53;;;;;;;124.72;53.58;;;;;;;;;;6331653;22;20046;-61
2022/10/14 03:24:27;;;;;;;127.85;52.20;;;;;;;;;;6331526;22;20025;-61
2022/10/14 03:26:54;;;;;;;98.68;46.90;;;;;;;;;;6332143;22;20061;-60
2022/10/14 03:29:21;;;;;;;102.95;44.10;;;;;;;;;;6333040;22;20038;-58
2022/10/14 03:31:55;;;;;;;112.35;49.95;;;;;;;;;;6331647;22;20033;-62
2022/10/14 03:34:22;;;;;;;122.07;52.20;;;;;;;;;;6332998;22;20101;-62
2022/10/14 03:36:49;;;;;;;118.90;50.92;;;;;;;;;;6332581;22;20106;-62
2022/10/14 03:39:23;;;;;;;110.28;48.58;;;;;;;;;;6331536;22;20106;-62
2022/10/14 03:41:50;;;;;;;124.82;53.60;;;;;;;;;;6332381;22;20093;-62
2022/10/14 03:44:31;;;;;;;99.18;45.25;;;;;;;;;;6331562;22;20021;-62
2022/10/14 03:47:04;;;;;;;121.88;52.30;;;;;;;;;;6332744;22;20319;-48
2022/10/14 03:49:38;;;;;;;95.22;43.53;;;;;;;;;;6332531;22;20543;-59
2022/10/14 03:52:05;;;;;;;107.20;47.10;;;;;;;;;;6332004;22;20030;-62
2022/10/14 03:54:32;;;;;;;106.40;46.70;;;;;;;;;;6332470;22;20022;-62
2022/10/14 03:57:06;;;;;;;115.15;51.20;;;;;;;;;;6334247;22;20098;-62
2022/10/14 03:59:33;;;;;;;125.25;51.85;;;;;;;;;;6331428;22;20021;-62
2022/10/14 04:02:00;;;;;;;109.97;46.75;;;;;;;;;;6332822;22;20484;-62
2022/10/14 04:04:34;;;;;;;128.18;49.65;;;;;;;;;;6332212;22;20029;-63
2022/10/14 04:07:01;;;;;;;112.72;49.28;;;;;;;;;;6333601;22;20094;-59
2022/10/14 04:09:35;;;;;;;101.53;46.45;;;;;;;;;;6332509;22;20357;-59
2022/10/14 04:12:02;;;;;;;78.47;38.22;;;;;;;;;;6332322;22;20026;-59
2022/10/14 04:14:29;;;;;;;106.45;45.35;;;;;;;;;;6333049;22;20680;-59
2022/10/14 04:17:03;;;;;;;95.38;43.33;;;;;;;;;;6333344;22;20014;-59
2022/10/14 04:19:30;;;;;;;81.10;39.30;;;;;;;;;;6331800;22;20025;-58
2022/10/14 04:22:04;;;;;;;78.60;38.45;;;;;;;;;;6332526;22;20098;-59
2022/10/14 04:24:31;;;;;;;81.47;38.42;;;;;;;;;;6332191;22;20476;-62
2022/10/14 04:26:58;;;;;;;89.15;41.78;;;;;;;;;;6332354;22;20022;-51
2022/10/14 04:29:32;;;;;;;104.72;42.50;;;;;;;;;;6331703;22;20029;-60
2022/10/14 04:31:59;;;;;;;93.60;42.83;;;;;;;;;;6333036;22;20478;-60
2022/10/14 04:34:26;;;;;;;98.28;42.47;;;;;;;;;;6332067;22;20015;-60
2022/10/14 04:37:00;;;;;;;96.57;42.95;;;;;;;;;;6331736;22;20102;-60
2022/10/14 04:39:27;;;;;;;100.95;43.80;;;;;;;;;;6333192;22;20056;-60
2022/10/14 04:42:01;;;;;;;92.03;40.28;;;;;;;;;;6332466;22;20101;-60
2022/10/14 04:44:34;;;;;;;97.03;42.42;;;;;;;;;;6323846;22;20200;-59
2022/10/14 04:47:15;;;;;;;68.53;34.95;;;;;;;;;;6332960;22;20019;-49
2022/10/14 04:49:43;;;;;;;99.70;43.30;;;;;;;;;;6331273;22;20042;-48
2022/10/14 04:52:17;;;;;;;116.47;46.92;;;;;;;;;;6331425;22;20022;-51
2022/10/14 04:54:44;;;;;;;103.13;45.72;;;;;;;;;;6329438;22;20023;-50
2022/10/14 04:57:11;;;;;;;99.68;43.38;;;;;;;;;;6329573;22;20022;-53
2022/10/14 04:59:45;;;;;;;117.18;47.08;;;;;;;;;;6331073;22;20097;-51
2022/10/14 05:02:12;;;;;;;112.93;44.25;;;;;;;;;;6331540;22;20129;-52
2022/10/14 05:04:39;;;;;;;102.43;44.83;;;;;;;;;;6331588;22;20023;-61
2022/10/14 05:07:13;;;;;;;111.43;47.30;;;;;;;;;;6304992;22;20029;-61
2022/10/14 05:09:40;;;;;;;124.47;47.50;;;;;;;;;;6332456;22;20019;-61
2022/10/14 05:12:18;;;;;;;125.70;48.15;;;;;;;;;;6331768;22;20068;-60
2022/10/14 05:14:46;;;;;;;139.55;49.22;;;;;;;;;;6331102;22;20398;-60
2022/10/14 05:17:13;;;;;;;108.30;44.38;;;;;;;;;;6333148;22;20019;-61
2022/10/14 05:19:47;;;;;;;154.50;50.55;;;;;;;;;;6330947;22;20515;-60
2022/10/14 05:22:14;;;;;;;120.28;47.42;;;;;;;;;;6331792;22;20029;-63
2022/10/14 05:24:48;;;;;;;114.32;44.72;;;;;;;;;;6332875;22;20019;-61
2022/10/14 05:27:15;;;;;;;139.25;47.53;;;;;;;;;;6333574;22;20030;-63
2022/10/14 05:29:42;;;;;;;132.45;47.53;;;;;;;;;;6330923;22;20103;-63
2022/10/14 05:32:16;;;;;;;138.00;47.75;;;;;;;;;;6332297;22;20023;-65
2022/10/14 05:34:43;;;;;;;158.40;52.13;;;;;;;;;;6330216;22;20019;-62
2022/10/14 05:37:10;;;;;;;136.13;47.45;;;;;;;;;;6330550;22;20555;-62
2022/10/14 05:39:44;;;;;;;122.50;43.53;;;;;;;;;;6332039;22;20460;-62
2022/10/14 05:42:11;;;;;;;111.18;42.45;;;;;;;;;;6331582;22;20018;-60
2022/10/14 05:44:52;;;;;;;101.90;37.20;;;;;;;;;;6329724;22;20243;-62
2022/10/14 05:47:19;;;;;;;77.70;32.17;;;;;;;;;;6333430;22;20022;-62
2022/10/14 05:49:53;;;;;;;90.22;30.58;;;;;;;;;;6333570;22;20022;-63
2022/10/14 05:52:20;;;;;;;65.05;26.02;;;;;;;;;;6307587;22;20065;-62
2022/10/14 05:54:47;;;;;;;;;;;;;;;;;;6333657;22;20098;-62
2022/10/14 05:57:21;;;;;;;41.95;16.48;;;;;;;;;;6335544;22;19953;-62
2022/10/14 05:59:48;;;;;;;52.63;17.27;;;;;;;;;;6333973;22;20033;-53
2022/10/14 06:02:22;;;;;;;36.53;11.10;;;;;;;;;;6333938;22;20137;-51
2022/10/14 06:04:50;;;;;;;40.35;12.77;;;;;;;;;;6332792;22;20393;-59
2022/10/14 06:07:17;;;;;;;38.35;11.43;;;;;;;;;;6333371;22;20098;-59
2022/10/14 06:09:51;;;;;;;32.58;9.57;;;;;;;;;;6333752;22;20042;-60
2022/10/14 06:12:18;;;;;;;33.25;9.77;;;;;;;;;;6333593;22;20019;-58
2022/10/14 06:14:52;;;;;;;29.58;9.18;;;;;;;;;;6332976;22;20015;-59
2022/10/14 06:17:19;;;;;;;38.88;10.10;;;;;;;;;;6332298;22;20026;-59
2022/10/14 06:19:46;;;;;;;28.13;8.98;;;;;;;;;;6333643;22;20760;-59
2022/10/14 06:22:20;;;;;;;32.70;8.27;;;;;;;;;;6332928;22;20025;-58
2022/10/14 06:24:47;;;;;;;29.52;7.90;;;;;;;;;;6332962;22;20186;-59
2022/10/14 06:27:23;;;;;;;31.40;8.52;;;;;;;;;;6331347;22;20464;-59
2022/10/14 06:29:56;;;;;;;28.50;7.38;;;;;;;;;;6334060;22;20018;-58
2022/10/14 06:32:30;;;;;;;20.70;5.28;;;;;;;;;;6332399;22;20023;-58
2022/10/14 06:34:57;;;;;;;25.55;6.18;;;;;;;;;;6332332;22;20479;-59
2022/10/14 06:37:24;;;;;;;23.45;5.30;;;;;;;;;;6332679;22;20019;-58
2022/10/14 06:39:58;;;;;;;23.80;5.00;;;;;;;;;;6334320;22;20033;-61
2022/10/14 06:42:26;;;;;;;29.90;5.32;;;;;;;;;;6332736;22;20018;-53
2022/10/14 06:45:07;;;;;;;26.88;5.18;;;;;;;;;;6330332;22;20076;-49
2022/10/14 06:47:40;;;;;;;30.58;5.28;;;;;;;;;;6332106;22;20476;-50
2022/10/14 06:50:14;;;;;;;21.33;5.03;;;;;;;;;;6305963;22;20023;-48
2022/10/14 06:52:47;;;;;;;23.90;5.03;;;;;;;;;;6332956;22;20027;-49
2022/10/14 06:55:22;;;;;;;27.63;5.03;;;;;;;;;;6334162;22;20029;-49
2022/10/14 06:57:56;;;;;;;26.52;6.05;;;;;;;;;;6305648;22;20541;-59
2022/10/14 07:00:23;;;;;;;29.13;5.07;;;;;;;;;;6333841;22;20015;-60
2022/10/14 07:02:50;;;;;;;;;;;;;;;;;;6333301;22;20033;-62
2022/10/14 07:05:25;;;;;;;25.30;4.70;;;;;;;;;;6332583;22;19918;-63
2022/10/14 07:07:52;;;;;;;;;;;;;;;;;;6333216;22;20049;-62
2022/10/14 07:10:27;;;;;;;28.60;4.72;;;;;;;;;;6332999;22;20053;-62
2022/10/14 07:12:55;;;;;;;31.98;5.47;;;;;;;;;;6332491;22;20376;-63
2022/10/14 07:15:22;;;;;;;23.13;4.03;;;;;;;;;;6332566;22;20027;-62
2022/10/14 07:18:03;;;;;;;23.48;4.40;;;;;;;;;;6333107;22;20495;-61
2022/10/14 07:20:30;;;;;;;16.75;3.50;;;;;;;;;;6331812;22;20098;-60
2022/10/14 07:23:04;;;;;;;20.25;3.90;;;;;;;;;;6332209;22;20068;-59
2022/10/14 07:25:31;;;;;;;23.95;3.58;;;;;;;;;;6332189;22;20045;-59
2022/10/14 07:27:59;;;;;;;19.98;3.88;;;;;;;;;;6332984;22;20543;-60
2022/10/14 07:30:33;;;;;;;25.02;3.60;;;;;;;;;;6332417;22;20041;-59
2022/10/14 07:33:00;;;;;;;17.60;3.75;;;;;;;;;;6332392;22;20097;-59
2022/10/14 07:35:34;;;;;;;22.52;3.88;;;;;;;;;;6331768;22;20102;-59
2022/10/14 07:38:01;;;;;;;18.80;3.92;;;;;;;;;;6332802;22;20353;-59
2022/10/14 07:40:28;;;;;;;16.58;3.50;;;;;;;;;;6332812;22;20025;-60
2022/10/14 07:43:10;;;;;;;20.25;3.08;;;;;;;;;;6332446;22;20026;-60
2022/10/14 07:45:46;;;;;;;28.63;3.85;;;;;;;;;;6330957;22;20460;-60
2022/10/14 07:48:27;;;;;;;20.20;3.15;;;;;;;;;;6332633;22;20489;-60
2022/10/14 07:51:05;;;;;;;19.23;3.40;;;;;;;;;;6333220;22;20023;-60
2022/10/14 07:53:40;;;;;;;20.45;3.95;;;;;;;;;;6331951;22;20033;-60
2022/10/14 07:56:16;;;;;;;19.05;3.88;;;;;;;;;;6332420;22;20089;-59
2022/10/14 07:58:43;;;;;;;14.77;4.13;;;;;;;;;;6333792;22;20404;-62
2022/10/14 08:01:17;;;;;;;22.48;3.72;;;;;;;;;;6332814;22;20061;-62
2022/10/14 08:03:46;;;;;;;17.42;3.22;;;;;;;;;;6332860;22;20018;-62
2022/10/14 08:06:13;;;;;;;19.75;3.28;;;;;;;;;;6334100;22;20025;-62
2022/10/14 08:08:47;;;;;;;17.45;2.95;;;;;;;;;;6331308;22;20027;-62
2022/10/14 08:11:15;;;;;;;22.48;3.17;;;;;;;;;;6331646;22;20025;-62
2022/10/14 08:13:43;;;;;;;30.13;4.32;;;;;;;;;;6332215;22;20028;-60
2022/10/14 08:16:17;;;;;;;18.33;3.03;;;;;;;;;;6331843;22;20583;-50
2022/10/14 08:18:45;;;;;;;15.60;2.78;;;;;;;;;;6331280;22;20023;-49
2022/10/14 08:21:12;;;;;;;;;;;;;;;;;;6334001;22;20019;-54
2022/10/14 08:23:46;;;;;;;15.25;2.70;;;;;;;;;;6332391;22;20251;-51
2022/10/14 08:26:22;;;;;;;18.30;3.13;;;;;;;;;;6332772;22;20023;-52
2022/10/14 08:28:56;;;;;;;15.20;3.13;;;;;;;;;;6332515;22;20464;-51
2022/10/14 08:31:23;;;;;;;;;;;;;;;;;;6332732;22;20018;-53
2022/10/14 08:33:50;;;;;;;18.60;3.33;;;;;;;;;;6329657;22;20248;-48
2022/10/14 08:36:24;;;;;;;14.80;3.30;;;;;;;;;;6331859;22;20053;-50
2022/10/14 08:38:52;;;;;;;22.27;2.95;;;;;;;;;;6332109;22;20353;-52
2022/10/14 08:41:38;;;;;;;17.23;2.60;;;;;;;;;;6331589;22;20533;-50
2022/10/14 08:44:25;;;;;;;12.13;2.58;;;;;;;;;;6332648;22;20026;-52
2022/10/14 08:47:11;;;;;;;17.52;2.80;;;;;;;;;;6270907;22;20024;-51
2022/10/14 08:49:57;;;;;;;19.10;3.35;;;;;;;;;;6268212;22;20031;-53
2022/10/14 08:52:39;;;;;;;23.35;2.88;;;;;;;;;;6270785;22;20059;-61
2022/10/14 08:55:24;;;;;;;15.13;2.78;;;;;;;;;;6270248;22;20351;-62
2022/10/14 08:58:07;;;;;;;11.45;2.85;;;;;;;;;;6270581;22;20020;-61
2022/10/14 09:00:37;;;;;;;;;;;;;;;;;;6272014;22;20020;-63
2022/10/14 09:03:16;;;;;;;13.48;2.60;;;;;;;;;;6267955;22;20006;-63
2022/10/14 09:05:44;;;;;;;17.38;2.88;;;;;;;;;;6269194;22;20023;-62
2022/10/14 09:08:20;;;;;;;15.77;2.80;;;;;;;;;;6269079;22;20020;-62
2022/10/14 09:10:47;;;;;;;19.33;3.08;;;;;;;;;;6269426;22;20134;-62
2022/10/14 09:13:28;;;;;;;13.02;2.97;;;;;;;;;;6268768;22;20024;-62
2022/10/14 09:16:02;;;;;;;13.55;2.63;;;;;;;;;;6270534;22;20023;-62
2022/10/14 09:18:49;;;;;;;20.23;2.88;;;;;;;;;;6269561;22;20029;-62
2022/10/14 09:21:23;;;;;;;14.15;2.95;;;;;;;;;;6271099;22;20028;-62
2022/10/14 09:24:21;;;;;;;12.90;2.72;;;;;;;;;;6271359;22;20499;-62
2022/10/14 09:27:11;;;;;;;11.23;2.13;;;;;;;;;;6271872;22;20496;-62
2022/10/14 09:29:45;;;;;;;16.90;3.05;;;;;;;;;;6272297;22;20024;-60
2022/10/14 09:32:15;;;;;;;15.88;2.67;;;;;;;;;;6271164;22;20039;-62
2022/10/14 09:34:51;;;;;;;16.50;2.58;;;;;;;;;;6271315;22;20697;-60
2022/10/14 09:37:24;;;;;;;19.83;3.28;;;;;;;;;;6272697;22;20024;-60
2022/10/14 09:40:08;;;;;;;10.20;2.58;;;;;;;;;;6271502;22;20020;-60
2022/10/14 09:42:54;;;;;;;15.68;2.97;;;;;;;;;;6270907;22;20030;-60
2022/10/14 09:46:00;;;;;;;8.50;2.63;;;;;;;;;;6296414;22;20023;-60
2022/10/14 09:48:33;;;;;;;13.90;3.15;;;;;;;;;;6332450;22;20023;-62
2022/10/14 09:51:08;;;;;;;17.92;3.08;;;;;;;;;;6334859;22;20486;-47
2022/10/14 09:53:36;;;;;;;17.45;2.63;;;;;;;;;;6333701;22;20026;-62
2022/10/14 09:56:10;;;;;;;15.18;2.60;;;;;;;;;;6307640;22;20029;-62
2022/10/14 09:58:39;;;;;;;;;;;;;;;;;;6334175;22;20015;-62
2022/10/14 10:01:14;;;;;;;18.20;2.97;;;;;;;;;;6332735;22;20418;-62
2022/10/14 10:03:48;;;;;;;16.25;3.08;;;;;;;;;;6333518;22;20101;-62
2022/10/14 10:06:18;;;;;;;15.38;2.50;;;;;;;;;;6334781;22;20025;-62
2022/10/14 10:08:52;;;;;;;13.43;2.00;;;;;;;;;;6332635;22;20344;-62
2022/10/14 10:11:38;;;;;;;14.10;2.58;;;;;;;;;;6332800;22;20023;-48
2022/10/14 10:14:28;;;;;;;19.65;2.75;;;;;;;;;;6333246;22;20025;-50
2022/10/14 10:17:08;;;;;;;10.77;2.20;;;;;;;;;;6332347;22;20117;-50
2022/10/14 10:19:43;;;;;;;15.27;2.40;;;;;;;;;;6332821;22;20022;-52
2022/10/14 10:22:32;;;;;;;17.33;2.67;;;;;;;;;;6331811;22;20027;-52
2022/10/14 10:25:09;;;;;;;11.57;2.22;;;;;;;;;;6333013;22;20029;-51
2022/10/14 10:27:38;;;;;;;19.63;3.03;;;;;;;;;;6331908;22;20098;-58
2022/10/14 10:30:15;;;;;;;11.75;2.47;;;;;;;;;;6333793;22;20022;-62
2022/10/14 10:32:45;;;;;;;16.05;2.80;;;;;;;;;;6332235;22;20567;-62
2022/10/14 10:35:25;;;;;;;11.75;2.33;;;;;;;;;;6332753;22;20029;-62
2022/10/14 10:37:59;;;;;;;13.10;2.58;;;;;;;;;;6334031;22;20080;-62
2022/10/14 10:40:39;;;;;;;12.25;2.20;;;;;;;;;;6332286;22;20093;-61
2022/10/14 10:43:26;;;;;;;16.20;2.60;;;;;;;;;;6305558;22;20022;-62
2022/10/14 10:46:20;;;;;;;15.23;2.50;;;;;;;;;;6332097;22;20464;-60
2022/10/14 10:48:53;;;;;;;10.93;2.50;;;;;;;;;;6333560;22;20411;-62
2022/10/14 10:51:38;;;;;;;16.42;3.08;;;;;;;;;;6332795;22;20023;-62
2022/10/14 10:54:05;;;;;;;12.90;2.25;;;;;;;;;;6332247;22;20034;-62
2022/10/14 10:56:39;;;;;;;14.32;2.25;;;;;;;;;;6333516;22;20032;-62
2022/10/14 10:59:22;;;;;;;12.75;2.13;;;;;;;;;;6331868;22;20513;-61
2022/10/14 11:02:03;;;;;;;16.42;2.47;;;;;;;;;;6332092;22;20045;-62
2022/10/14 11:04:55;;;;;;;13.05;2.15;;;;;;;;;;6332308;22;20113;-52
2022/10/14 11:13:26;;;;;;;12.23;1.90;;;;;;;;;;6331880;22;20018;-62
2022/10/14 11:16:09;;;;;;;8.02;2.45;;;;;;;;;;6333211;22;20023;-62
2022/10/14 11:18:45;;;;;;;12.52;2.60;;;;;;;;;;6333019;22;20054;-63
2022/10/14 11:21:34;;;;;;;8.65;2.30;;;;;;;;;;6332366;22;20057;-61
2022/10/14 11:24:13;;;;;;;6.95;1.83;;;;;;;;;;6331585;22;20027;-60
2022/10/14 11:26:56;;;;;;;7.68;1.90;;;;;;;;;;6331967;22;20097;-53
2022/10/14 11:29:39;;;;;;;9.82;1.90;;;;;;;;;;6332952;22;20018;-61
2022/10/14 11:32:19;;;;;;;6.45;1.40;;;;;;;;;;6332096;22;20025;-62
2022/10/14 11:34:55;;;;;;;14.48;2.22;;;;;;;;;;6331390;22;20518;-62
2022/10/14 11:37:37;;;;;;;12.82;1.67;;;;;;;;;;6332792;22;20025;-62
2022/10/14 11:40:14;;;;;;;6.88;1.75;;;;;;;;;;6332927;22;20029;-61
2022/10/14 11:42:56;;;;;;;9.48;2.13;;;;;;;;;;6331171;22;20355;-60
2022/10/14 11:45:31;;;;;;;8.25;1.92;;;;;;;;;;6330590;22;20023;-60
2022/10/14 11:48:17;;;;;;;5.00;1.60;;;;;;;;;;6331809;22;20022;-48
2022/10/14 11:50:46;;;;;;;10.38;2.13;;;;;;;;;;6331818;22;20025;-52
2022/10/14 11:53:22;;;;;;;8.07;1.98;;;;;;;;;;6331311;22;20018;-50
2022/10/14 11:55:52;;;;;;;9.98;1.80;;;;;;;;;;6332828;22;20502;-54
2022/10/14 11:58:22;;;;;;;12.27;2.20;;;;;;;;;;6331394;22;20042;-52
2022/10/14 12:00:59;;;;;;;12.32;2.05;;;;;;;;;;6331407;22;20022;-55
2022/10/14 12:03:45;;;;;;;8.98;2.00;;;;;;;;;;6332244;22;20054;-60
2022/10/14 12:06:19;;;;;;;13.73;1.95;;;;;;;;;;6332825;22;20023;-61
2022/10/14 12:09:01;;;;;;;11.88;2.40;;;;;;;;;;6330810;22;20015;-62
2022/10/14 12:11:43;;;;;;;8.88;1.90;;;;;;;;;;6331068;22;20029;-61
2022/10/14 12:14:13;;;;;;;8.48;1.88;;;;;;;;;;6332674;22;20085;-62
2022/10/14 12:16:47;;;;;;;6.03;1.60;;;;;;;;;;6331918;22;20019;-62
2022/10/14 12:19:14;;;;;;;;;;;;;;;;;;6333271;22;20056;-62
2022/10/14 12:21:51;;;;;;;10.85;2.00;;;;;;;;;;6332517;22;19946;-48
2022/10/14 12:24:29;;;;;;;6.95;1.80;;;;;;;;;;6331460;22;20409;-60
2022/10/14 12:27:04;;;;;;;12.30;2.13;;;;;;;;;;6332395;22;20097;-61
2022/10/14 12:29:33;;;;;;;6.10;2.13;;;;;;;;;;6332198;22;20482;-60
2022/10/14 12:32:03;;;;;;;6.60;1.50;;;;;;;;;;6331295;22;20050;-60
2022/10/14 12:34:39;;;;;;;10.10;2.28;;;;;;;;;;6331183;22;20057;-60
2022/10/14 12:37:24;;;;;;;9.13;1.70;;;;;;;;;;6332203;22;20110;-60
2022/10/14 12:40:02;;;;;;;8.88;2.00;;;;;;;;;;6333025;22;20023;-52
2022/10/14 12:42:38;;;;;;;8.48;2.15;;;;;;;;;;6332821;22;20109;-61
2022/10/14 12:45:24;;;;;;;7.53;1.70;;;;;;;;;;6330523;22;20097;-53
2022/10/14 12:48:07;;;;;;;10.23;2.00;;;;;;;;;;6270879;22;20031;-52
2022/10/14 12:50:37;;;;;;;10.95;1.60;;;;;;;;;;6270700;22;20512;-49
2022/10/14 12:53:21;;;;;;;21.75;2.17;;;;;;;;;;6268483;22;20020;-54
2022/10/14 12:55:50;;;;;;;7.10;2.05;;;;;;;;;;6269633;22;20023;-49
2022/10/14 12:58:33;;;;;;;7.78;1.40;;;;;;;;;;6269626;22;20488;-50
2022/10/14 13:01:14;;;;;;;10.43;1.88;;;;;;;;;;6269070;22;20030;-61
2022/10/14 13:04:01;;;;;;;8.80;1.67;;;;;;;;;;6269439;22;20066;-62
2022/10/14 13:06:38;;;;;;;7.88;1.80;;;;;;;;;;6270728;22;20016;-62
2022/10/14 13:09:12;;;;;;;8.80;1.50;;;;;;;;;;6270664;22;20026;-62
2022/10/14 13:11:40;;;;;;;6.00;2.03;;;;;;;;;;6269467;22;20023;-61
2022/10/14 13:14:26;;;;;;;6.32;2.10;;;;;;;;;;6270362;22;20051;-62
2022/10/14 13:17:03;;;;;;;9.27;1.80;;;;;;;;;;6260317;22;20111;-61
2022/10/14 13:19:34;;;;;;;10.30;2.30;;;;;;;;;;6268495;22;20058;-51
2022/10/14 13:22:27;;;;;;;11.32;2.22;;;;;;;;;;6269326;22;20020;-59
2022/10/14 13:25:19;;;;;;;7.60;2.08;;;;;;;;;;6270330;22;20100;-60
2022/10/14 13:28:25;;;;;;;10.20;2.15;;;;;;;;;;6270288;22;20041;-60
2022/10/14 13:31:03;;;;;;;5.85;1.50;;;;;;;;;;6234858;22;20050;-60
2022/10/14 13:33:45;;;;;;;10.25;1.92;;;;;;;;;;6268127;22;20019;-60
2022/10/14 13:36:18;;;;;;;4.93;2.47;;;;;;;;;;6268188;22;20091;-60
2022/10/14 13:38:56;;;;;;;12.32;2.35;;;;;;;;;;6269312;22;20026;-51
2022/10/14 13:41:25;;;;;;;18.58;2.33;;;;;;;;;;6269263;22;20081;-60
2022/10/14 13:44:00;;;;;;;11.77;2.00;;;;;;;;;;6268707;22;20051;-58
2022/10/14 13:46:37;;;;;;;7.30;1.95;;;;;;;;;;6300037;22;20359;-61
2022/10/14 13:49:19;;;;;;;5.07;1.67;;;;;;;;;;6332170;22;20029;-60
2022/10/14 13:51:56;;;;;;;9.60;2.20;;;;;;;;;;6330993;22;20022;-60
2022/10/14 13:54:31;;;;;;;10.30;1.90;;;;;;;;;;6330929;22;20098;-59
2022/10/14 13:57:11;;;;;;;7.78;1.80;;;;;;;;;;6331050;22;20089;-50
2022/10/14 14:00:24;;;;;;;5.10;1.88;;;;;;;;;;6328569;22;20392;-61
2022/10/14 14:03:18;;;;;;;7.57;1.67;;;;;;;;;;6331008;22;20023;-61
2022/10/14 14:05:52;;;;;;;8.70;1.85;;;;;;;;;;6331929;22;20413;-61
2022/10/14 14:08:42;;;;;;;9.00;1.67;;;;;;;;;;6332333;22;20015;-61
2022/10/14 14:11:27;;;;;;;6.45;1.60;;;;;;;;;;6333330;22;20383;-61
2022/10/14 14:14:01;;;;;;;11.25;2.00;;;;;;;;;;6332590;22;20026;-61
2022/10/14 14:16:38;;;;;;;7.45;2.00;;;;;;;;;;6332823;22;20029;-54
2022/10/14 14:19:17;;;;;;;7.05;2.20;;;;;;;;;;6343476;22;20061;-60
2022/10/14 14:21:45;;;;;;;7.53;1.95;;;;;;;;;;6332310;22;20015;-60
2022/10/14 14:24:22;;;;;;;9.05;2.13;;;;;;;;;;6332156;22;20352;-60
2022/10/14 14:26:52;;;;;;;5.75;2.10;;;;;;;;;;6331585;22;20015;-59
2022/10/14 14:29:27;;;;;;;10.25;2.20;;;;;;;;;;6331287;22;20125;-61
2022/10/14 14:31:56;;;;;;;12.02;2.15;;;;;;;;;;6333633;22;20022;-61
2022/10/14 14:34:39;;;;;;;17.60;2.40;;;;;;;;;;6332819;22;20034;-60
2022/10/14 14:37:15;;;;;;;9.65;2.20;;;;;;;;;;6332187;22;20506;-61
2022/10/14 14:40:20;;;;;;;8.93;2.22;;;;;;;;;;6332957;22;20521;-60
2022/10/14 14:42:49;;;;;;;12.57;2.10;;;;;;;;;;6331696;22;20861;-60
2022/10/14 14:45:59;;;;;;;10.43;2.00;;;;;;;;;;6331234;22;20045;-60
2022/10/14 14:48:33;;;;;;;10.07;2.25;;;;;;;;;;6270748;22;20016;-60
2022/10/14 14:51:09;;;;;;;8.70;1.80;;;;;;;;;;6269779;22;20026;-60
2022/10/14 14:53:36;;;;;;;9.52;2.38;;;;;;;;;;6270417;22;20019;-60
2022/10/14 14:56:16;;;;;;;8.45;2.05;;;;;;;;;;6271604;22;20019;-60
2022/10/14 14:58:48;;;;;;;9.23;1.65;;;;;;;;;;6267029;22;20480;-61
2022/10/14 15:01:25;;;;;;;6.78;1.63;;;;;;;;;;6272298;22;20026;-60
2022/10/14 15:04:03;;;;;;;8.88;2.03;;;;;;;;;;6270663;22;20378;-61
2022/10/14 15:06:40;;;;;;;11.27;2.03;;;;;;;;;;6270450;22;20405;-61
2022/10/14 15:09:23;;;;;;;10.65;2.63;;;;;;;;;;6271809;22;20042;-61
2022/10/14 15:11:57;;;;;;;7.53;1.77;;;;;;;;;;6270545;22;20102;-60
2022/10/14 15:14:24;;;;;;;;;;;;;;;;;;6269697;22;20520;-60
2022/10/14 15:16:53;;;;;;;10.85;2.50;;;;;;;;;;6271083;22;20001;-62